createdAt,value
2022-12-01T00:01:28.832Z,102135.00
2022-12-01T00:03:56.671Z,102129.88
2022-12-01T00:06:23.373Z,102137.81
2022-12-01T00:09:15.157Z,102133.41
2022-12-01T00:11:44.774Z,102140.56
2022-12-01T00:14:11.713Z,102139.69
2022-12-01T00:16:40.395Z,102141.50
2022-12-01T00:19:07.205Z,102133.50
2022-12-01T00:21:33.823Z,102131.69
2022-12-01T00:24:00.482Z,102133.63
2022-12-01T00:26:30.065Z,102132.84
2022-12-01T00:28:59.492Z,102129.19
2022-12-01T00:31:27.634Z,102129.25
2022-12-01T00:33:57.852Z,102123.97
2022-12-01T00:36:24.755Z,102134.56
2022-12-01T00:38:59.396Z,102133.63
2022-12-01T00:41:26.430Z,102133.72
2022-12-01T00:43:55.790Z,102131.19
2022-12-01T00:46:22.400Z,102133.84
2022-12-01T00:48:49.233Z,102134.75
2022-12-01T00:51:15.916Z,102136.50
2022-12-01T00:53:42.537Z,102140.06
2022-12-01T00:56:09.192Z,102149.84
2022-12-01T00:58:36.107Z,102141.78
2022-12-01T01:01:03.670Z,102146.25
2022-12-01T01:03:32.805Z,102138.31
2022-12-01T01:06:12.973Z,102141.78
2022-12-01T01:08:41.060Z,102145.25
2022-12-01T01:11:09.792Z,102144.47
2022-12-01T01:13:38.798Z,102157.66
2022-12-01T01:16:20.971Z,102154.97
2022-12-01T01:18:48.950Z,102156.78
2022-12-01T01:21:23.485Z,102155.06
2022-12-01T01:23:53.335Z,102155.94
2022-12-01T01:26:28.687Z,102154.13
2022-12-01T01:29:04.528Z,102159.44
2022-12-01T01:31:31.557Z,102158.53
2022-12-01T01:33:59.112Z,102158.44
2022-12-01T01:36:27.059Z,102155.06
2022-12-01T01:38:55.141Z,102161.09
2022-12-01T01:41:24.334Z,102161.03
2022-12-01T01:43:59.588Z,102166.31
2022-12-01T01:46:35.145Z,102162.75
2022-12-01T01:49:08.792Z,102167.19
2022-12-01T01:51:55.293Z,102168.03
2022-12-01T01:54:33.546Z,102165.44
2022-12-01T01:57:04.818Z,102162.75
2022-12-01T01:59:53.640Z,102174.31
2022-12-01T02:02:20.367Z,102165.44
2022-12-01T02:04:58.525Z,102164.50
2022-12-01T02:07:25.490Z,102166.31
2022-12-01T02:09:55.248Z,102161.91
2022-12-01T02:13:03.595Z,102168.09
2022-12-01T02:16:09.634Z,102164.56
2022-12-01T02:19:38.518Z,102162.00
2022-12-01T02:22:53.910Z,102170.13
2022-12-01T02:25:58.309Z,102163.06
2022-12-01T02:29:06.050Z,102167.50
2022-12-01T02:31:58.615Z,102156.84
2022-12-01T02:34:44.212Z,102166.66
2022-12-01T02:37:42.888Z,102160.41
2022-12-01T02:40:31.521Z,102163.06
2022-12-01T02:43:27.256Z,102168.25
2022-12-01T02:46:26.938Z,102162.91
2022-12-01T02:49:01.888Z,102155.78
2022-12-01T02:51:36.951Z,102163.56
2022-12-01T02:54:06.288Z,102158.16
2022-12-01T02:56:32.974Z,102162.53
2022-12-01T02:58:59.651Z,102167.03
2022-12-01T03:01:57.166Z,102155.50
2022-12-01T03:05:06.851Z,102161.56
2022-12-01T03:07:57.547Z,102158.16
2022-12-01T03:10:55.712Z,102164.28
2022-12-01T03:13:55.108Z,102159.88
2022-12-01T03:17:00.308Z,102165.09
2022-12-01T03:19:44.510Z,102153.56
2022-12-01T03:22:35.352Z,102160.59
2022-12-01T03:25:05.367Z,102160.59
2022-12-01T03:27:44.082Z,102161.47
2022-12-01T03:30:18.213Z,102157.94
2022-12-01T03:33:04.787Z,102154.47
2022-12-01T03:35:45.070Z,102160.59
2022-12-01T03:38:30.586Z,102162.34
2022-12-01T03:41:13.062Z,102154.41
2022-12-01T03:43:51.854Z,102151.69
2022-12-01T03:46:41.095Z,102157.78
2022-12-01T03:49:12.075Z,102163.00
2022-12-01T03:52:02.230Z,102160.38
2022-12-01T03:55:01.382Z,102168.47
2022-12-01T03:57:45.557Z,102160.59
2022-12-01T04:00:15.466Z,102162.41
2022-12-01T04:02:44.915Z,102166.91
2022-12-01T04:05:13.307Z,102162.34
2022-12-01T04:07:40.985Z,102165.09
2022-12-01T04:10:08.955Z,102162.41
2022-12-01T04:12:35.747Z,102157.31
2022-12-01T04:15:12.387Z,102157.31
2022-12-01T04:17:43.434Z,102164.56
2022-12-01T04:20:15.573Z,102163.66
2022-12-01T04:22:42.610Z,102156.72
2022-12-01T04:25:10.628Z,102172.66
2022-12-01T04:27:38.659Z,102173.66
2022-12-01T04:30:08.214Z,102167.50
2022-12-01T04:32:43.853Z,102165.00
2022-12-01T04:35:14.667Z,102170.34
2022-12-01T04:37:41.443Z,102176.63
2022-12-01T04:40:14.290Z,102181.16
2022-12-01T04:42:40.976Z,102174.09
2022-12-01T04:45:17.623Z,102172.44
2022-12-01T04:47:44.267Z,102172.50
2022-12-01T04:50:11.868Z,102179.56
2022-12-01T04:52:38.551Z,102179.56
2022-12-01T04:55:06.099Z,102180.44
2022-12-01T04:57:32.758Z,102176.97
2022-12-01T04:59:59.485Z,102175.09
2022-12-01T05:02:26.266Z,102177.81
2022-12-01T05:04:53.133Z,102181.28
2022-12-01T05:07:19.738Z,102180.50
2022-12-01T05:09:46.723Z,102174.22
2022-12-01T05:12:13.787Z,102174.22
2022-12-01T05:14:42.405Z,102176.91
2022-12-01T05:17:09.047Z,102173.44
2022-12-01T05:19:54.555Z,102178.78
2022-12-01T05:22:42.557Z,102184.91
2022-12-01T05:25:13.618Z,102177.91
2022-12-01T05:27:40.550Z,102182.44
2022-12-01T05:30:14.745Z,102182.50
2022-12-01T05:32:41.402Z,102186.03
2022-12-01T05:35:12.913Z,102184.31
2022-12-01T05:37:39.616Z,102185.81
2022-12-01T05:40:11.427Z,102193.81
2022-12-01T05:42:38.233Z,102195.56
2022-12-01T05:45:08.963Z,102204.44
2022-12-01T06:09:05.025Z,102213.72
2022-12-01T06:11:31.715Z,102211.94
2022-12-01T06:38:12.303Z,102227.41
2022-12-01T06:56:54.501Z,102237.50
2022-12-01T07:34:27.861Z,102259.69
2022-12-01T07:58:32.200Z,102261.34
2022-12-01T08:35:53.756Z,102280.81
2022-12-01T08:41:17.517Z,102283.16
2022-12-01T08:44:01.806Z,102285.75
2022-12-01T09:49:39.715Z,102302.97
2022-12-01T09:52:20.110Z,102306.53
2022-12-01T09:54:48.545Z,102300.72
2022-12-01T10:03:47.473Z,102296.69
2022-12-01T10:06:33.382Z,102294.97
2022-12-01T10:09:27.540Z,102283.53
2022-12-01T10:34:48.654Z,102273.16
2022-12-01T11:08:39.635Z,102272.38
2022-12-01T11:11:28.191Z,102271.41
2022-12-01T11:13:57.852Z,102275.84
2022-12-01T11:16:40.154Z,102271.28
2022-12-01T11:19:34.664Z,102276.75
2022-12-01T11:22:19.621Z,102274.25
2022-12-01T11:24:55.388Z,102274.81
2022-12-01T11:27:49.404Z,102277.28
2022-12-01T11:30:30.443Z,102271.19
2022-12-01T11:33:03.485Z,102272.53
2022-12-01T11:35:36.285Z,102269.50
2022-12-01T11:40:58.547Z,102264.22
2022-12-01T11:43:37.161Z,102269.19
2022-12-01T11:46:09.783Z,102270.19
2022-12-01T11:48:36.914Z,102274.03
2022-12-01T11:51:28.822Z,102272.59
2022-12-01T11:54:26.391Z,102263.06
2022-12-01T11:57:25.254Z,102268.31
2022-12-01T11:59:44.448Z,102261.69
2022-12-01T12:03:04.264Z,102264.72
2022-12-01T12:05:52.802Z,102263.84
2022-12-01T12:08:47.014Z,102264.41
2022-12-01T12:11:46.590Z,102259.16
2022-12-01T12:14:49.088Z,102250.97
2022-12-01T12:17:51.166Z,102254.59
2022-12-01T12:20:59.263Z,102253.59
2022-12-01T12:24:08.090Z,102255.13
2022-12-01T12:27:22.591Z,102249.91
2022-12-01T12:30:36.656Z,102251.88
2022-12-01T12:33:44.770Z,102255.09
2022-12-01T12:36:46.845Z,102258.22
2022-12-01T12:40:16.384Z,102252.53
2022-12-01T12:43:22.750Z,102262.03
2022-12-01T12:46:12.467Z,102257.06
2022-12-01T12:49:24.714Z,102264.16
2022-12-01T12:52:08.455Z,102250.97
2022-12-01T12:54:53.555Z,102258.06
2022-12-01T12:58:00.164Z,102259.56
2022-12-01T13:00:29.934Z,102256.03
2022-12-01T13:03:13.721Z,102257.53
2022-12-01T13:06:01.898Z,102255.41
2022-12-01T13:08:52.425Z,102268.38
2022-12-01T13:11:30.468Z,102254.13
2022-12-01T13:14:26.304Z,102256.56
2022-12-01T13:17:31.107Z,102251.66
2022-12-01T13:19:57.866Z,102250.00
2022-12-01T13:22:35.124Z,102254.91
2022-12-01T13:25:04.667Z,102252.72
2022-12-01T13:27:40.369Z,102249.00
2022-12-01T13:30:24.174Z,102251.28
2022-12-01T13:33:09.638Z,102245.66
2022-12-01T13:35:40.013Z,102246.59
2022-12-01T13:38:34.622Z,102250.50
2022-12-01T13:41:19.551Z,102242.53
2022-12-01T13:44:23.219Z,102238.44
2022-12-01T13:47:04.982Z,102242.31
2022-12-01T13:50:36.595Z,102243.25
2022-12-01T13:53:38.853Z,102242.38
2022-12-01T13:56:17.550Z,102238.69
2022-12-01T13:58:53.162Z,102238.06
2022-12-01T14:01:20.002Z,102237.88
2022-12-01T14:04:25.454Z,102229.72
2022-12-01T14:07:34.104Z,102229.59
2022-12-01T14:10:27.293Z,102226.25
2022-12-01T14:13:02.143Z,102227.22
2022-12-01T14:15:42.163Z,102221.06
2022-12-01T14:18:18.053Z,102229.06
2022-12-01T14:20:48.622Z,102213.81
2022-12-01T14:23:36.117Z,102225.00
2022-12-01T14:26:45.537Z,102229.06
2022-12-01T14:29:45.510Z,102222.88
2022-12-01T14:32:17.755Z,102224.16
2022-12-01T14:34:45.499Z,102225.22
2022-12-01T14:37:22.897Z,102220.94
2022-12-01T14:40:15.553Z,102220.03
2022-12-01T14:43:10.156Z,102220.16
2022-12-01T14:45:59.460Z,102226.47
2022-12-01T14:48:40.890Z,102221.56
2022-12-01T14:51:32.224Z,102222.31
2022-12-01T14:54:10.650Z,102223.41
2022-12-01T14:56:38.970Z,102220.75
2022-12-01T14:59:29.339Z,102213.69
2022-12-01T15:02:09.101Z,102213.75
2022-12-01T15:05:22.194Z,102221.28
2022-12-01T15:07:58.863Z,102227.44
2022-12-01T15:10:39.167Z,102223.09
2022-12-01T15:13:40.954Z,102231.00
2022-12-01T15:16:25.411Z,102222.16
2022-12-01T15:18:53.310Z,102226.69
2022-12-01T15:21:31.966Z,102229.50
2022-12-01T15:24:20.115Z,102223.22
2022-12-01T15:26:52.517Z,102223.28
2022-12-01T15:29:47.096Z,102223.28
2022-12-01T15:32:23.367Z,102214.56
2022-12-01T15:34:55.912Z,102220.03
2022-12-01T15:37:28.333Z,102226.22
2022-12-01T15:40:47.820Z,102233.34
2022-12-01T15:43:26.631Z,102233.25
2022-12-01T15:46:03.154Z,102237.78
2022-12-01T15:48:35.457Z,102236.03
2022-12-01T15:51:15.255Z,102238.59
2022-12-01T15:53:55.219Z,102242.13
2022-12-01T15:56:40.031Z,102230.59
2022-12-01T15:59:12.749Z,102236.94
2022-12-01T16:01:43.769Z,102230.78
2022-12-01T16:04:25.450Z,102235.25
2022-12-01T16:07:09.789Z,102232.56
2022-12-01T16:09:58.413Z,102231.75
2022-12-01T16:12:38.048Z,102229.13
2022-12-01T16:15:06.788Z,102226.53
2022-12-01T16:17:58.049Z,102237.94
2022-12-01T16:20:26.436Z,102231.78
2022-12-01T16:23:09.915Z,102226.47
2022-12-01T16:25:46.130Z,102231.84
2022-12-01T16:28:32.819Z,102238.75
2022-12-01T16:30:59.666Z,102231.66
2022-12-01T16:33:32.444Z,102237.13
2022-12-01T16:46:57.454Z,102241.69
2022-12-01T17:41:32.140Z,102225.94
2022-12-01T17:54:52.222Z,102236.34
2022-12-01T18:30:01.420Z,102248.44
2022-12-01T18:48:53.328Z,102248.66
2022-12-01T18:51:24.041Z,102255.97
2022-12-01T18:53:57.474Z,102254.06
2022-12-01T19:07:19.228Z,102257.03
2022-12-01T20:06:42.656Z,102255.72
2022-12-01T20:17:15.875Z,102262.09
2022-12-01T20:57:45.545Z,102254.97
2022-12-01T21:00:17.273Z,102251.50
2022-12-01T21:23:30.240Z,102257.13
2022-12-01T21:34:18.834Z,102252.66
2022-12-01T21:39:36.660Z,102241.16
2022-12-01T22:15:40.980Z,102232.56
2022-12-01T22:18:22.635Z,102228.88
2022-12-01T22:20:49.275Z,102229.88
2022-12-01T22:23:16.066Z,102233.34
2022-12-01T22:25:43.089Z,102227.16
2022-12-01T22:28:22.108Z,102231.72
2022-12-01T22:30:48.870Z,102235.31
2022-12-01T22:33:24.915Z,102237.16
2022-12-01T22:35:52.960Z,102236.41
2022-12-01T22:38:37.293Z,102245.22
2022-12-01T22:41:14.252Z,102242.00
2022-12-01T22:44:00.671Z,102246.47
2022-12-01T22:46:41.703Z,102247.38
2022-12-01T22:49:29.037Z,102244.75
2022-12-01T22:52:30.296Z,102245.97
2022-12-01T22:55:01.395Z,102245.88
2022-12-01T22:57:34.759Z,102246.13
2022-12-01T23:00:15.761Z,102245.38
2022-12-01T23:02:42.833Z,102255.31
2022-12-01T23:05:30.558Z,102245.97
2022-12-01T23:07:57.584Z,102246.38
2022-12-01T23:10:46.107Z,102244.81
2022-12-01T23:13:29.980Z,102248.53
2022-12-01T23:16:00.160Z,102253.88
2022-12-01T23:18:33.472Z,102247.56
2022-12-01T23:21:02.378Z,102240.56
2022-12-01T23:23:36.994Z,102238.81
2022-12-01T23:26:08.945Z,102238.75
2022-12-01T23:28:41.345Z,102236.91
2022-12-01T23:31:11.572Z,102243.06
2022-12-01T23:33:38.485Z,102234.16
2022-12-01T23:36:25.750Z,102236.75
2022-12-01T23:39:07.124Z,102234.03
2022-12-01T23:41:40.863Z,102230.47
2022-12-01T23:44:46.019Z,102234.91
2022-12-01T23:47:27.370Z,102240.06
2022-12-01T23:50:13.962Z,102231.13
2022-12-01T23:52:40.859Z,102228.47
2022-12-01T23:55:27.092Z,102226.72
2022-12-01T23:58:03.725Z,102220.53
